sensor_id;sensor_type;location;lat;lon;timestamp;P1;durP1;ratioP1;P2;durP2;ratioP2
3465;SDS011;1747;48.884;9.160;2023-06-26T00:01:27;11.10;;;7.88;;
3465;SDS011;1747;48.884;9.160;2023-06-26T00:03:56;9.55;;;7.20;;
3465;SDS011;1747;48.884;9.160;2023-06-26T00:06:22;10.50;;;7.32;;
3465;SDS011;1747;48.884;9.160;2023-06-26T00:08:51;12.18;;;7.85;;
3465;SDS011;1747;48.884;9.160;2023-06-26T00:11:18;9.88;;;6.80;;
3465;SDS011;1747;48.884;9.160;2023-06-26T00:13:44;10.20;;;7.25;;
3465;SDS011;1747;48.884;9.160;2023-06-26T00:16:13;11.52;;;6.95;;
3465;SDS011;1747;48.884;9.160;2023-06-26T00:18:39;9.75;;;7.10;;
3465;SDS011;1747;48.884;9.160;2023-06-26T00:21:06;9.60;;;7.40;;
3465;SDS011;1747;48.884;9.160;2023-06-26T00:23:33;10.75;;;7.53;;
3465;SDS011;1747;48.884;9.160;2023-06-26T00:26:02;11.05;;;7.35;;
3465;SDS011;1747;48.884;9.160;2023-06-26T00:28:29;11.50;;;7.35;;
3465;SDS011;1747;48.884;9.160;2023-06-26T00:30:55;9.77;;;6.75;;
3465;SDS011;1747;48.884;9.160;2023-06-26T00:33:24;11.05;;;7.38;;
3465;SDS011;1747;48.884;9.160;2023-06-26T00:35:50;13.52;;;8.45;;
3465;SDS011;1747;48.884;9.160;2023-06-26T00:38:17;12.27;;;8.65;;
3465;SDS011;1747;48.884;9.160;2023-06-26T00:40:44;11.95;;;8.48;;
3465;SDS011;1747;48.884;9.160;2023-06-26T00:43:11;12.68;;;8.52;;
3465;SDS011;1747;48.884;9.160;2023-06-26T00:45:38;13.23;;;8.00;;
3465;SDS011;1747;48.884;9.160;2023-06-26T00:48:04;12.80;;;7.90;;
3465;SDS011;1747;48.884;9.160;2023-06-26T00:50:33;14.38;;;8.00;;
3465;SDS011;1747;48.884;9.160;2023-06-26T00:53:00;15.45;;;8.60;;
3465;SDS011;1747;48.884;9.160;2023-06-26T00:55:27;13.00;;;8.57;;
3465;SDS011;1747;48.884;9.160;2023-06-26T00:57:55;12.77;;;8.18;;
3465;SDS011;1747;48.884;9.160;2023-06-26T01:00:22;12.45;;;8.15;;
3465;SDS011;1747;48.884;9.160;2023-06-26T01:02:50;12.80;;;8.85;;
3465;SDS011;1747;48.884;9.160;2023-06-26T01:05:16;12.73;;;8.40;;
3465;SDS011;1747;48.884;9.160;2023-06-26T01:07:47;12.90;;;8.18;;
3465;SDS011;1747;48.884;9.160;2023-06-26T01:10:14;11.63;;;8.02;;
3465;SDS011;1747;48.884;9.160;2023-06-26T01:12:41;12.73;;;8.27;;
3465;SDS011;1747;48.884;9.160;2023-06-26T01:15:08;14.20;;;8.70;;
3465;SDS011;1747;48.884;9.160;2023-06-26T01:17:36;11.27;;;8.05;;
3465;SDS011;1747;48.884;9.160;2023-06-26T01:20:05;11.35;;;8.02;;
3465;SDS011;1747;48.884;9.160;2023-06-26T01:22:37;10.27;;;7.88;;
3465;SDS011;1747;48.884;9.160;2023-06-26T01:25:15;11.30;;;8.02;;
3465;SDS011;1747;48.884;9.160;2023-06-26T01:27:56;14.60;;;7.97;;
3465;SDS011;1747;48.884;9.160;2023-06-26T01:30:24;15.95;;;8.65;;
3465;SDS011;1747;48.884;9.160;2023-06-26T01:32:52;12.30;;;8.32;;
3465;SDS011;1747;48.884;9.160;2023-06-26T01:35:19;13.18;;;7.97;;
3465;SDS011;1747;48.884;9.160;2023-06-26T01:37:46;15.50;;;7.93;;
3465;SDS011;1747;48.884;9.160;2023-06-26T01:40:13;12.30;;;7.82;;
3465;SDS011;1747;48.884;9.160;2023-06-26T01:42:39;14.18;;;8.23;;
3465;SDS011;1747;48.884;9.160;2023-06-26T01:45:10;11.73;;;8.20;;
3465;SDS011;1747;48.884;9.160;2023-06-26T01:47:44;14.57;;;8.00;;
3465;SDS011;1747;48.884;9.160;2023-06-26T01:50:16;12.07;;;8.13;;
3465;SDS011;1747;48.884;9.160;2023-06-26T01:52:49;12.40;;;8.00;;
3465;SDS011;1747;48.884;9.160;2023-06-26T01:55:26;13.93;;;8.38;;
3465;SDS011;1747;48.884;9.160;2023-06-26T01:58:00;14.18;;;8.30;;
3465;SDS011;1747;48.884;9.160;2023-06-26T02:00:29;12.48;;;8.02;;
3465;SDS011;1747;48.884;9.160;2023-06-26T02:02:58;14.82;;;8.30;;
3465;SDS011;1747;48.884;9.160;2023-06-26T02:05:25;12.98;;;8.40;;
3465;SDS011;1747;48.884;9.160;2023-06-26T02:07:52;13.45;;;8.48;;
3465;SDS011;1747;48.884;9.160;2023-06-26T02:10:18;15.02;;;7.93;;
3465;SDS011;1747;48.884;9.160;2023-06-26T02:12:45;12.18;;;8.52;;
3465;SDS011;1747;48.884;9.160;2023-06-26T02:15:12;14.50;;;8.25;;
3465;SDS011;1747;48.884;9.160;2023-06-26T02:17:40;16.65;;;8.68;;
3465;SDS011;1747;48.884;9.160;2023-06-26T02:20:07;15.77;;;8.32;;
3465;SDS011;1747;48.884;9.160;2023-06-26T02:22:35;13.98;;;7.93;;
3465;SDS011;1747;48.884;9.160;2023-06-26T02:25:02;14.60;;;7.85;;
3465;SDS011;1747;48.884;9.160;2023-06-26T02:27:29;13.27;;;8.13;;
3465;SDS011;1747;48.884;9.160;2023-06-26T02:29:56;12.13;;;8.43;;
3465;SDS011;1747;48.884;9.160;2023-06-26T02:32:22;15.05;;;7.70;;
3465;SDS011;1747;48.884;9.160;2023-06-26T02:34:51;13.77;;;8.10;;
3465;SDS011;1747;48.884;9.160;2023-06-26T02:37:18;12.73;;;7.53;;
3465;SDS011;1747;48.884;9.160;2023-06-26T02:39:45;11.07;;;8.02;;
3465;SDS011;1747;48.884;9.160;2023-06-26T02:42:12;13.05;;;7.68;;
3465;SDS011;1747;48.884;9.160;2023-06-26T02:44:39;12.43;;;8.38;;
3465;SDS011;1747;48.884;9.160;2023-06-26T02:47:06;12.73;;;8.52;;
3465;SDS011;1747;48.884;9.160;2023-06-26T02:49:32;12.38;;;8.43;;
3465;SDS011;1747;48.884;9.160;2023-06-26T02:52:01;12.68;;;8.20;;
3465;SDS011;1747;48.884;9.160;2023-06-26T02:54:27;14.50;;;8.05;;
3465;SDS011;1747;48.884;9.160;2023-06-26T02:56:54;14.02;;;8.25;;
3465;SDS011;1747;48.884;9.160;2023-06-26T02:59:21;14.25;;;7.75;;
3465;SDS011;1747;48.884;9.160;2023-06-26T03:01:48;12.45;;;8.38;;
3465;SDS011;1747;48.884;9.160;2023-06-26T03:04:15;10.55;;;7.47;;
3465;SDS011;1747;48.884;9.160;2023-06-26T03:06:42;15.15;;;7.95;;
3465;SDS011;1747;48.884;9.160;2023-06-26T03:09:11;16.55;;;8.02;;
3465;SDS011;1747;48.884;9.160;2023-06-26T03:11:37;14.23;;;7.82;;
3465;SDS011;1747;48.884;9.160;2023-06-26T03:14:04;14.98;;;8.20;;
3465;SDS011;1747;48.884;9.160;2023-06-26T03:16:31;11.43;;;7.40;;
3465;SDS011;1747;48.884;9.160;2023-06-26T03:18:58;14.68;;;7.93;;
3465;SDS011;1747;48.884;9.160;2023-06-26T03:21:24;13.43;;;7.18;;
3465;SDS011;1747;48.884;9.160;2023-06-26T03:23:51;16.15;;;7.13;;
3465;SDS011;1747;48.884;9.160;2023-06-26T03:26:19;15.23;;;7.20;;
3465;SDS011;1747;48.884;9.160;2023-06-26T03:28:52;11.98;;;7.82;;
3465;SDS011;1747;48.884;9.160;2023-06-26T03:31:19;14.85;;;8.05;;
3465;SDS011;1747;48.884;9.160;2023-06-26T03:33:46;16.35;;;7.35;;
3465;SDS011;1747;48.884;9.160;2023-06-26T03:36:13;15.30;;;8.05;;
3465;SDS011;1747;48.884;9.160;2023-06-26T03:38:40;15.23;;;7.82;;
3465;SDS011;1747;48.884;9.160;2023-06-26T03:41:07;10.70;;;7.32;;
3465;SDS011;1747;48.884;9.160;2023-06-26T03:43:35;13.05;;;7.90;;
3465;SDS011;1747;48.884;9.160;2023-06-26T03:46:02;12.32;;;7.10;;
3465;SDS011;1747;48.884;9.160;2023-06-26T03:48:28;10.85;;;7.18;;
3465;SDS011;1747;48.884;9.160;2023-06-26T03:50:55;17.77;;;7.88;;
3465;SDS011;1747;48.884;9.160;2023-06-26T03:53:22;14.65;;;8.02;;
3465;SDS011;1747;48.884;9.160;2023-06-26T03:55:49;15.82;;;8.52;;
3465;SDS011;1747;48.884;9.160;2023-06-26T03:58:16;15.35;;;8.15;;
3465;SDS011;1747;48.884;9.160;2023-06-26T04:00:45;12.98;;;7.88;;
3465;SDS011;1747;48.884;9.160;2023-06-26T04:03:12;11.15;;;7.53;;
3465;SDS011;1747;48.884;9.160;2023-06-26T04:05:39;11.57;;;8.10;;
3465;SDS011;1747;48.884;9.160;2023-06-26T04:08:05;10.98;;;7.28;;
3465;SDS011;1747;48.884;9.160;2023-06-26T04:10:32;14.57;;;7.43;;
3465;SDS011;1747;48.884;9.160;2023-06-26T04:13:01;11.07;;;7.18;;
3465;SDS011;1747;48.884;9.160;2023-06-26T04:15:28;14.48;;;7.25;;
3465;SDS011;1747;48.884;9.160;2023-06-26T04:17:56;11.73;;;7.85;;
3465;SDS011;1747;48.884;9.160;2023-06-26T04:20:23;16.80;;;8.02;;
3465;SDS011;1747;48.884;9.160;2023-06-26T04:22:49;12.88;;;8.80;;
3465;SDS011;1747;48.884;9.160;2023-06-26T04:25:16;16.42;;;8.98;;
3465;SDS011;1747;48.884;9.160;2023-06-26T04:27:43;13.38;;;8.25;;
3465;SDS011;1747;48.884;9.160;2023-06-26T04:30:10;17.08;;;8.18;;
3465;SDS011;1747;48.884;9.160;2023-06-26T04:32:38;12.88;;;7.97;;
3465;SDS011;1747;48.884;9.160;2023-06-26T04:35:06;14.00;;;8.98;;
3465;SDS011;1747;48.884;9.160;2023-06-26T04:37:35;12.85;;;8.40;;
3465;SDS011;1747;48.884;9.160;2023-06-26T04:40:01;13.68;;;8.55;;
3465;SDS011;1747;48.884;9.160;2023-06-26T04:42:30;14.27;;;8.65;;
3465;SDS011;1747;48.884;9.160;2023-06-26T04:44:57;13.85;;;8.45;;
3465;SDS011;1747;48.884;9.160;2023-06-26T04:47:24;15.90;;;9.45;;
3465;SDS011;1747;48.884;9.160;2023-06-26T04:49:50;14.02;;;9.10;;
3465;SDS011;1747;48.884;9.160;2023-06-26T04:52:18;16.85;;;9.35;;
3465;SDS011;1747;48.884;9.160;2023-06-26T04:54:45;14.25;;;8.63;;
3465;SDS011;1747;48.884;9.160;2023-06-26T04:57:12;13.15;;;9.07;;
3465;SDS011;1747;48.884;9.160;2023-06-26T04:59:39;11.77;;;8.20;;
3465;SDS011;1747;48.884;9.160;2023-06-26T05:02:06;14.57;;;8.52;;
3465;SDS011;1747;48.884;9.160;2023-06-26T05:04:33;14.98;;;9.55;;
3465;SDS011;1747;48.884;9.160;2023-06-26T05:07:00;15.38;;;9.02;;
3465;SDS011;1747;48.884;9.160;2023-06-26T05:09:28;13.18;;;8.98;;
3465;SDS011;1747;48.884;9.160;2023-06-26T05:11:55;14.80;;;9.48;;
3465;SDS011;1747;48.884;9.160;2023-06-26T05:14:21;13.80;;;9.85;;
3465;SDS011;1747;48.884;9.160;2023-06-26T05:16:48;12.02;;;9.32;;
3465;SDS011;1747;48.884;9.160;2023-06-26T05:19:18;14.30;;;10.00;;
3465;SDS011;1747;48.884;9.160;2023-06-26T05:21:47;13.95;;;9.18;;
3465;SDS011;1747;48.884;9.160;2023-06-26T05:24:14;12.45;;;8.98;;
3465;SDS011;1747;48.884;9.160;2023-06-26T05:26:44;14.80;;;8.57;;
3465;SDS011;1747;48.884;9.160;2023-06-26T05:29:11;15.30;;;9.30;;
3465;SDS011;1747;48.884;9.160;2023-06-26T05:31:40;16.25;;;9.23;;
3465;SDS011;1747;48.884;9.160;2023-06-26T05:34:07;12.98;;;9.50;;
3465;SDS011;1747;48.884;9.160;2023-06-26T05:36:37;14.70;;;8.70;;
3465;SDS011;1747;48.884;9.160;2023-06-26T05:39:07;16.17;;;9.18;;
3465;SDS011;1747;48.884;9.160;2023-06-26T05:41:34;17.92;;;9.50;;
3465;SDS011;1747;48.884;9.160;2023-06-26T05:44:03;15.77;;;9.05;;
3465;SDS011;1747;48.884;9.160;2023-06-26T05:46:30;13.60;;;9.50;;
3465;SDS011;1747;48.884;9.160;2023-06-26T05:48:57;11.73;;;8.18;;
3465;SDS011;1747;48.884;9.160;2023-06-26T05:51:24;13.25;;;9.18;;
3465;SDS011;1747;48.884;9.160;2023-06-26T05:53:51;13.07;;;9.18;;
3465;SDS011;1747;48.884;9.160;2023-06-26T05:56:19;14.00;;;9.25;;
3465;SDS011;1747;48.884;9.160;2023-06-26T05:58:46;12.57;;;8.98;;
3465;SDS011;1747;48.884;9.160;2023-06-26T06:01:15;15.20;;;9.57;;
3465;SDS011;1747;48.884;9.160;2023-06-26T06:03:42;14.27;;;9.57;;
3465;SDS011;1747;48.884;9.160;2023-06-26T06:06:08;12.85;;;9.23;;
3465;SDS011;1747;48.884;9.160;2023-06-26T06:08:36;15.57;;;9.88;;
3465;SDS011;1747;48.884;9.160;2023-06-26T06:11:03;12.98;;;9.15;;
3465;SDS011;1747;48.884;9.160;2023-06-26T06:13:30;12.85;;;8.75;;
3465;SDS011;1747;48.884;9.160;2023-06-26T06:15:57;14.93;;;7.88;;
3465;SDS011;1747;48.884;9.160;2023-06-26T06:18:25;10.45;;;7.72;;
3465;SDS011;1747;48.884;9.160;2023-06-26T06:20:52;14.27;;;8.10;;
3465;SDS011;1747;48.884;9.160;2023-06-26T06:23:19;11.57;;;8.48;;
3465;SDS011;1747;48.884;9.160;2023-06-26T06:25:46;13.80;;;9.40;;
3465;SDS011;1747;48.884;9.160;2023-06-26T06:28:12;13.20;;;8.70;;
3465;SDS011;1747;48.884;9.160;2023-06-26T06:30:41;12.20;;;8.85;;
3465;SDS011;1747;48.884;9.160;2023-06-26T06:33:08;13.43;;;8.50;;
3465;SDS011;1747;48.884;9.160;2023-06-26T06:35:36;12.48;;;8.18;;
3465;SDS011;1747;48.884;9.160;2023-06-26T06:38:03;10.68;;;7.93;;
3465;SDS011;1747;48.884;9.160;2023-06-26T06:40:30;14.23;;;8.20;;
3465;SDS011;1747;48.884;9.160;2023-06-26T06:42:57;12.68;;;8.25;;
3465;SDS011;1747;48.884;9.160;2023-06-26T06:45:24;11.73;;;7.72;;
3465;SDS011;1747;48.884;9.160;2023-06-26T06:47:50;10.85;;;7.32;;
3465;SDS011;1747;48.884;9.160;2023-06-26T06:50:17;11.23;;;7.80;;
3465;SDS011;1747;48.884;9.160;2023-06-26T06:52:46;11.77;;;8.77;;
3465;SDS011;1747;48.884;9.160;2023-06-26T06:55:13;9.52;;;7.32;;
3465;SDS011;1747;48.884;9.160;2023-06-26T06:57:39;11.48;;;6.95;;
3465;SDS011;1747;48.884;9.160;2023-06-26T07:00:07;13.25;;;7.30;;
3465;SDS011;1747;48.884;9.160;2023-06-26T07:02:36;10.55;;;7.28;;
3465;SDS011;1747;48.884;9.160;2023-06-26T07:05:03;9.27;;;6.57;;
3465;SDS011;1747;48.884;9.160;2023-06-26T07:07:31;10.63;;;7.45;;
3465;SDS011;1747;48.884;9.160;2023-06-26T07:10:01;8.20;;;6.57;;
3465;SDS011;1747;48.884;9.160;2023-06-26T07:12:29;10.27;;;7.25;;
3465;SDS011;1747;48.884;9.160;2023-06-26T07:14:56;9.77;;;6.82;;
3465;SDS011;1747;48.884;9.160;2023-06-26T07:17:23;12.82;;;6.10;;
3465;SDS011;1747;48.884;9.160;2023-06-26T07:19:50;9.35;;;6.68;;
3465;SDS011;1747;48.884;9.160;2023-06-26T07:22:17;9.80;;;6.28;;
3465;SDS011;1747;48.884;9.160;2023-06-26T07:24:45;7.80;;;6.13;;
3465;SDS011;1747;48.884;9.160;2023-06-26T07:27:13;9.30;;;6.43;;
3465;SDS011;1747;48.884;9.160;2023-06-26T07:29:40;7.72;;;6.03;;
3465;SDS011;1747;48.884;9.160;2023-06-26T07:32:07;7.82;;;6.30;;
3465;SDS011;1747;48.884;9.160;2023-06-26T07:34:34;7.85;;;6.30;;
3465;SDS011;1747;48.884;9.160;2023-06-26T07:37:01;9.10;;;5.90;;
3465;SDS011;1747;48.884;9.160;2023-06-26T07:39:27;13.02;;;6.55;;
3465;SDS011;1747;48.884;9.160;2023-06-26T07:41:54;6.95;;;6.05;;
3465;SDS011;1747;48.884;9.160;2023-06-26T07:44:24;9.90;;;5.70;;
3465;SDS011;1747;48.884;9.160;2023-06-26T07:46:51;10.57;;;6.45;;
3465;SDS011;1747;48.884;9.160;2023-06-26T07:49:18;6.60;;;5.78;;
3465;SDS011;1747;48.884;9.160;2023-06-26T07:51:45;7.82;;;5.80;;
3465;SDS011;1747;48.884;9.160;2023-06-26T07:54:11;8.52;;;6.10;;
3465;SDS011;1747;48.884;9.160;2023-06-26T07:56:51;10.27;;;6.38;;
3465;SDS011;1747;48.884;9.160;2023-06-26T07:59:19;9.18;;;6.18;;
3465;SDS011;1747;48.884;9.160;2023-06-26T08:01:48;9.07;;;6.05;;
3465;SDS011;1747;48.884;9.160;2023-06-26T08:04:16;7.75;;;6.32;;
3465;SDS011;1747;48.884;9.160;2023-06-26T08:06:44;9.15;;;5.80;;
3465;SDS011;1747;48.884;9.160;2023-06-26T08:09:11;7.20;;;5.78;;
3465;SDS011;1747;48.884;9.160;2023-06-26T08:11:38;7.05;;;5.93;;
3465;SDS011;1747;48.884;9.160;2023-06-26T08:14:05;10.20;;;6.70;;
3465;SDS011;1747;48.884;9.160;2023-06-26T08:16:32;7.25;;;6.20;;
3465;SDS011;1747;48.884;9.160;2023-06-26T08:19:00;8.18;;;7.00;;
3465;SDS011;1747;48.884;9.160;2023-06-26T08:21:27;8.20;;;6.22;;
3465;SDS011;1747;48.884;9.160;2023-06-26T08:23:54;7.18;;;6.10;;
3465;SDS011;1747;48.884;9.160;2023-06-26T08:26:20;9.30;;;6.13;;
3465;SDS011;1747;48.884;9.160;2023-06-26T08:28:47;7.95;;;6.20;;
3465;SDS011;1747;48.884;9.160;2023-06-26T08:31:14;10.90;;;6.78;;
3465;SDS011;1747;48.884;9.160;2023-06-26T08:33:42;7.97;;;6.70;;
3465;SDS011;1747;48.884;9.160;2023-06-26T08:36:10;7.35;;;6.50;;
3465;SDS011;1747;48.884;9.160;2023-06-26T08:38:37;8.15;;;5.72;;
3465;SDS011;1747;48.884;9.160;2023-06-26T08:41:05;6.97;;;5.75;;
3465;SDS011;1747;48.884;9.160;2023-06-26T08:43:32;7.03;;;6.00;;
3465;SDS011;1747;48.884;9.160;2023-06-26T08:45:59;7.00;;;5.97;;
3465;SDS011;1747;48.884;9.160;2023-06-26T08:48:26;9.50;;;6.45;;
3465;SDS011;1747;48.884;9.160;2023-06-26T08:50:55;12.25;;;6.15;;
3465;SDS011;1747;48.884;9.160;2023-06-26T08:53:29;10.48;;;5.95;;
3465;SDS011;1747;48.884;9.160;2023-06-26T08:55:59;7.30;;;6.05;;
3465;SDS011;1747;48.884;9.160;2023-06-26T08:58:28;10.63;;;5.97;;
3465;SDS011;1747;48.884;9.160;2023-06-26T09:00:54;9.52;;;6.07;;
3465;SDS011;1747;48.884;9.160;2023-06-26T09:03:22;12.77;;;6.07;;
3465;SDS011;1747;48.884;9.160;2023-06-26T09:05:50;6.97;;;5.95;;
3465;SDS011;1747;48.884;9.160;2023-06-26T09:08:16;6.80;;;6.10;;
3465;SDS011;1747;48.884;9.160;2023-06-26T09:10:45;6.60;;;5.60;;
3465;SDS011;1747;48.884;9.160;2023-06-26T09:13:11;7.82;;;5.57;;
3465;SDS011;1747;48.884;9.160;2023-06-26T09:15:39;7.70;;;5.28;;
3465;SDS011;1747;48.884;9.160;2023-06-26T09:18:09;10.20;;;6.00;;
3465;SDS011;1747;48.884;9.160;2023-06-26T09:20:36;9.73;;;5.90;;
3465;SDS011;1747;48.884;9.160;2023-06-26T09:23:02;7.60;;;5.15;;
3465;SDS011;1747;48.884;9.160;2023-06-26T09:25:30;7.60;;;5.18;;
3465;SDS011;1747;48.884;9.160;2023-06-26T09:27:58;6.50;;;5.05;;
3465;SDS011;1747;48.884;9.160;2023-06-26T09:30:25;10.60;;;5.28;;
3465;SDS011;1747;48.884;9.160;2023-06-26T09:32:52;10.88;;;5.03;;
3465;SDS011;1747;48.884;9.160;2023-06-26T09:35:20;6.10;;;5.50;;
3465;SDS011;1747;48.884;9.160;2023-06-26T09:37:47;6.05;;;5.45;;
3465;SDS011;1747;48.884;9.160;2023-06-26T09:40:13;11.05;;;6.10;;
3465;SDS011;1747;48.884;9.160;2023-06-26T09:42:41;9.57;;;5.53;;
3465;SDS011;1747;48.884;9.160;2023-06-26T09:45:12;9.32;;;5.75;;
3465;SDS011;1747;48.884;9.160;2023-06-26T09:47:45;10.23;;;6.13;;
3465;SDS011;1747;48.884;9.160;2023-06-26T09:50:20;9.52;;;5.97;;
3465;SDS011;1747;48.884;9.160;2023-06-26T09:52:50;9.35;;;5.88;;
3465;SDS011;1747;48.884;9.160;2023-06-26T09:55:17;8.25;;;5.70;;
3465;SDS011;1747;48.884;9.160;2023-06-26T09:57:47;6.57;;;5.90;;
3465;SDS011;1747;48.884;9.160;2023-06-26T10:00:17;6.85;;;5.78;;
3465;SDS011;1747;48.884;9.160;2023-06-26T10:02:44;8.32;;;5.90;;
3465;SDS011;1747;48.884;9.160;2023-06-26T10:05:11;12.75;;;6.38;;
3465;SDS011;1747;48.884;9.160;2023-06-26T10:07:38;7.82;;;6.60;;
3465;SDS011;1747;48.884;9.160;2023-06-26T10:10:07;6.65;;;5.90;;
3465;SDS011;1747;48.884;9.160;2023-06-26T10:12:34;7.88;;;6.25;;
3465;SDS011;1747;48.884;9.160;2023-06-26T10:15:03;6.70;;;6.00;;
3465;SDS011;1747;48.884;9.160;2023-06-26T10:17:34;8.45;;;6.28;;
3465;SDS011;1747;48.884;9.160;2023-06-26T10:20:03;14.18;;;6.78;;
3465;SDS011;1747;48.884;9.160;2023-06-26T10:22:42;11.48;;;6.57;;
3465;SDS011;1747;48.884;9.160;2023-06-26T10:25:12;7.35;;;6.03;;
3465;SDS011;1747;48.884;9.160;2023-06-26T10:27:44;6.90;;;5.90;;
3465;SDS011;1747;48.884;9.160;2023-06-26T10:30:14;11.50;;;5.88;;
3465;SDS011;1747;48.884;9.160;2023-06-26T10:32:47;11.95;;;6.38;;
3465;SDS011;1747;48.884;9.160;2023-06-26T10:35:15;11.85;;;6.57;;
3465;SDS011;1747;48.884;9.160;2023-06-26T10:37:42;11.65;;;7.25;;
3465;SDS011;1747;48.884;9.160;2023-06-26T10:40:10;12.77;;;7.18;;
3465;SDS011;1747;48.884;9.160;2023-06-26T10:42:38;13.15;;;6.97;;
3465;SDS011;1747;48.884;9.160;2023-06-26T10:45:13;8.57;;;6.85;;
3465;SDS011;1747;48.884;9.160;2023-06-26T10:47:42;8.45;;;6.30;;
3465;SDS011;1747;48.884;9.160;2023-06-26T10:50:22;8.73;;;7.15;;
3465;SDS011;1747;48.884;9.160;2023-06-26T10:53:10;11.98;;;8.25;;
3465;SDS011;1747;48.884;9.160;2023-06-26T10:55:41;9.00;;;6.63;;
3465;SDS011;1747;48.884;9.160;2023-06-26T10:58:31;9.65;;;6.85;;
3465;SDS011;1747;48.884;9.160;2023-06-26T11:01:16;15.05;;;7.97;;
3465;SDS011;1747;48.884;9.160;2023-06-26T11:03:46;13.30;;;6.68;;
3465;SDS011;1747;48.884;9.160;2023-06-26T11:06:17;7.65;;;6.43;;
3465;SDS011;1747;48.884;9.160;2023-06-26T11:08:45;7.90;;;6.38;;
3465;SDS011;1747;48.884;9.160;2023-06-26T11:11:13;9.43;;;6.72;;
3465;SDS011;1747;48.884;9.160;2023-06-26T11:13:40;10.32;;;7.63;;
3465;SDS011;1747;48.884;9.160;2023-06-26T11:16:07;17.27;;;7.07;;
3465;SDS011;1747;48.884;9.160;2023-06-26T11:18:34;8.20;;;7.03;;
3465;SDS011;1747;48.884;9.160;2023-06-26T11:21:04;11.38;;;6.63;;
3465;SDS011;1747;48.884;9.160;2023-06-26T11:23:34;11.82;;;6.90;;
3465;SDS011;1747;48.884;9.160;2023-06-26T11:26:15;8.45;;;7.07;;
3465;SDS011;1747;48.884;9.160;2023-06-26T11:28:50;9.85;;;6.85;;
3465;SDS011;1747;48.884;9.160;2023-06-26T11:31:26;9.48;;;6.88;;
3465;SDS011;1747;48.884;9.160;2023-06-26T11:33:55;10.75;;;7.03;;
3465;SDS011;1747;48.884;9.160;2023-06-26T11:36:23;8.60;;;6.40;;
3465;SDS011;1747;48.884;9.160;2023-06-26T11:38:56;21.98;;;6.53;;
3465;SDS011;1747;48.884;9.160;2023-06-26T11:41:24;9.88;;;6.70;;
3465;SDS011;1747;48.884;9.160;2023-06-26T11:43:52;12.98;;;7.18;;
3465;SDS011;1747;48.884;9.160;2023-06-26T11:46:19;8.75;;;6.50;;
3465;SDS011;1747;48.884;9.160;2023-06-26T11:48:47;12.82;;;7.05;;
3465;SDS011;1747;48.884;9.160;2023-06-26T11:51:15;12.68;;;7.13;;
3465;SDS011;1747;48.884;9.160;2023-06-26T11:53:42;14.15;;;6.75;;
3465;SDS011;1747;48.884;9.160;2023-06-26T11:56:11;12.70;;;7.32;;
3465;SDS011;1747;48.884;9.160;2023-06-26T11:58:55;16.42;;;7.43;;
3465;SDS011;1747;48.884;9.160;2023-06-26T12:01:23;8.13;;;6.72;;
3465;SDS011;1747;48.884;9.160;2023-06-26T12:03:51;8.40;;;6.75;;
3465;SDS011;1747;48.884;9.160;2023-06-26T12:06:20;8.65;;;6.68;;
3465;SDS011;1747;48.884;9.160;2023-06-26T12:08:47;7.50;;;6.68;;
3465;SDS011;1747;48.884;9.160;2023-06-26T12:11:16;10.48;;;6.13;;
3465;SDS011;1747;48.884;9.160;2023-06-26T12:13:46;7.80;;;6.57;;
3465;SDS011;1747;48.884;9.160;2023-06-26T12:16:13;13.05;;;6.32;;
3465;SDS011;1747;48.884;9.160;2023-06-26T12:18:41;9.98;;;6.55;;
3465;SDS011;1747;48.884;9.160;2023-06-26T12:21:08;8.73;;;7.20;;
3465;SDS011;1747;48.884;9.160;2023-06-26T12:23:57;14.82;;;7.53;;
3465;SDS011;1747;48.884;9.160;2023-06-26T12:26:26;12.73;;;7.15;;
3465;SDS011;1747;48.884;9.160;2023-06-26T12:28:54;8.25;;;6.45;;
3465;SDS011;1747;48.884;9.160;2023-06-26T12:31:28;11.30;;;6.78;;
3465;SDS011;1747;48.884;9.160;2023-06-26T12:33:55;13.00;;;7.05;;
3465;SDS011;1747;48.884;9.160;2023-06-26T12:36:22;10.40;;;7.00;;
3465;SDS011;1747;48.884;9.160;2023-06-26T12:38:49;7.97;;;6.72;;
3465;SDS011;1747;48.884;9.160;2023-06-26T12:41:18;13.18;;;6.82;;
3465;SDS011;1747;48.884;9.160;2023-06-26T12:43:47;8.25;;;6.10;;
3465;SDS011;1747;48.884;9.160;2023-06-26T12:46:13;8.68;;;6.50;;
3465;SDS011;1747;48.884;9.160;2023-06-26T12:48:41;8.18;;;6.85;;
3465;SDS011;1747;48.884;9.160;2023-06-26T12:51:12;11.90;;;7.13;;
3465;SDS011;1747;48.884;9.160;2023-06-26T12:53:41;9.52;;;6.85;;
3465;SDS011;1747;48.884;9.160;2023-06-26T12:56:08;7.30;;;6.32;;
3465;SDS011;1747;48.884;9.160;2023-06-26T12:58:36;10.05;;;6.72;;
3465;SDS011;1747;48.884;9.160;2023-06-26T13:01:05;9.05;;;6.40;;
3465;SDS011;1747;48.884;9.160;2023-06-26T13:03:35;8.70;;;6.00;;
3465;SDS011;1747;48.884;9.160;2023-06-26T13:06:02;9.70;;;6.03;;
3465;SDS011;1747;48.884;9.160;2023-06-26T13:08:29;7.60;;;6.15;;
3465;SDS011;1747;48.884;9.160;2023-06-26T13:10:59;7.15;;;5.57;;
3465;SDS011;1747;48.884;9.160;2023-06-26T13:13:27;8.45;;;5.28;;
3465;SDS011;1747;48.884;9.160;2023-06-26T13:15:54;9.10;;;5.80;;
3465;SDS011;1747;48.884;9.160;2023-06-26T13:18:22;6.72;;;5.40;;
3465;SDS011;1747;48.884;9.160;2023-06-26T13:20:49;7.47;;;5.13;;
3465;SDS011;1747;48.884;9.160;2023-06-26T13:23:16;11.63;;;6.78;;
3465;SDS011;1747;48.884;9.160;2023-06-26T13:25:44;9.95;;;5.40;;
3465;SDS011;1747;48.884;9.160;2023-06-26T13:28:10;6.70;;;5.25;;
3465;SDS011;1747;48.884;9.160;2023-06-26T13:30:37;6.78;;;5.53;;
3465;SDS011;1747;48.884;9.160;2023-06-26T13:33:05;7.38;;;5.60;;
3465;SDS011;1747;48.884;9.160;2023-06-26T13:35:33;11.43;;;5.20;;
3465;SDS011;1747;48.884;9.160;2023-06-26T13:38:00;7.85;;;5.38;;
3465;SDS011;1747;48.884;9.160;2023-06-26T13:40:27;10.35;;;4.80;;
3465;SDS011;1747;48.884;9.160;2023-06-26T13:42:53;6.13;;;4.80;;
3465;SDS011;1747;48.884;9.160;2023-06-26T13:45:20;4.90;;;4.32;;
3465;SDS011;1747;48.884;9.160;2023-06-26T13:47:47;6.85;;;4.82;;
3465;SDS011;1747;48.884;9.160;2023-06-26T13:50:14;6.38;;;4.50;;
3465;SDS011;1747;48.884;9.160;2023-06-26T13:52:42;9.20;;;5.28;;
3465;SDS011;1747;48.884;9.160;2023-06-26T13:55:09;5.93;;;4.68;;
3465;SDS011;1747;48.884;9.160;2023-06-26T13:57:36;10.52;;;4.80;;
3465;SDS011;1747;48.884;9.160;2023-06-26T14:00:06;5.03;;;4.38;;
3465;SDS011;1747;48.884;9.160;2023-06-26T14:02:34;6.20;;;4.20;;
3465;SDS011;1747;48.884;9.160;2023-06-26T14:05:01;6.30;;;3.90;;
3465;SDS011;1747;48.884;9.160;2023-06-26T14:07:29;4.90;;;3.90;;
3465;SDS011;1747;48.884;9.160;2023-06-26T14:09:57;7.75;;;4.07;;
3465;SDS011;1747;48.884;9.160;2023-06-26T14:12:24;7.43;;;4.25;;
3465;SDS011;1747;48.884;9.160;2023-06-26T14:14:51;4.07;;;3.38;;
3465;SDS011;1747;48.884;9.160;2023-06-26T14:17:18;5.63;;;3.53;;
3465;SDS011;1747;48.884;9.160;2023-06-26T14:19:45;5.70;;;3.53;;
3465;SDS011;1747;48.884;9.160;2023-06-26T14:22:12;6.00;;;3.40;;
3465;SDS011;1747;48.884;9.160;2023-06-26T14:24:38;4.75;;;3.78;;
3465;SDS011;1747;48.884;9.160;2023-06-26T14:27:07;6.13;;;3.85;;
3465;SDS011;1747;48.884;9.160;2023-06-26T14:29:33;5.40;;;3.53;;
3465;SDS011;1747;48.884;9.160;2023-06-26T14:32:01;6.38;;;4.13;;
3465;SDS011;1747;48.884;9.160;2023-06-26T14:34:28;5.60;;;4.05;;
3465;SDS011;1747;48.884;9.160;2023-06-26T14:36:55;12.02;;;3.80;;
3465;SDS011;1747;48.884;9.160;2023-06-26T14:39:22;7.28;;;4.03;;
3465;SDS011;1747;48.884;9.160;2023-06-26T14:41:49;4.45;;;3.50;;
3465;SDS011;1747;48.884;9.160;2023-06-26T14:44:17;5.07;;;3.60;;
3465;SDS011;1747;48.884;9.160;2023-06-26T14:46:44;10.52;;;4.10;;
3465;SDS011;1747;48.884;9.160;2023-06-26T14:49:11;6.53;;;3.50;;
3465;SDS011;1747;48.884;9.160;2023-06-26T14:51:38;5.70;;;3.42;;
3465;SDS011;1747;48.884;9.160;2023-06-26T14:54:05;4.43;;;3.45;;
3465;SDS011;1747;48.884;9.160;2023-06-26T14:56:34;5.03;;;3.63;;
3465;SDS011;1747;48.884;9.160;2023-06-26T14:59:01;8.18;;;3.58;;
3465;SDS011;1747;48.884;9.160;2023-06-26T15:01:29;4.78;;;3.92;;
3465;SDS011;1747;48.884;9.160;2023-06-26T15:03:56;8.75;;;4.28;;
3465;SDS011;1747;48.884;9.160;2023-06-26T15:06:22;10.00;;;4.32;;
3465;SDS011;1747;48.884;9.160;2023-06-26T15:08:49;5.05;;;4.30;;
3465;SDS011;1747;48.884;9.160;2023-06-26T15:11:17;7.70;;;4.40;;
3465;SDS011;1747;48.884;9.160;2023-06-26T15:13:44;5.47;;;4.30;;